createdAt,value
2023-05-22T00:00:20.772Z,17.61
2023-05-22T00:00:52.871Z,17.61
2023-05-22T00:01:21.022Z,17.61
2023-05-22T00:01:53.616Z,17.61
2023-05-22T00:02:23.824Z,17.50
2023-05-22T00:02:54.941Z,17.50
2023-05-22T00:03:25.051Z,17.50
2023-05-22T00:03:56.590Z,17.50
2023-05-22T00:04:26.914Z,17.61
2023-05-22T00:04:59.329Z,17.61
2023-05-22T00:05:29.473Z,17.61
2023-05-22T00:06:00.937Z,17.61
2023-05-22T00:06:31.007Z,17.61
2023-05-22T00:07:09.252Z,17.61
2023-05-22T00:07:33.718Z,17.50
2023-05-22T00:08:03.940Z,17.50
2023-05-22T00:08:35.709Z,17.50
2023-05-22T00:09:06.807Z,17.50
2023-05-22T00:09:37.676Z,17.50
2023-05-22T00:10:08.748Z,17.50
2023-05-22T00:10:40.387Z,17.50
2023-05-22T00:11:09.965Z,17.50
2023-05-22T00:11:42.334Z,17.50
2023-05-22T00:12:12.962Z,17.50
2023-05-22T00:12:44.006Z,17.27
2023-05-22T00:13:14.045Z,17.22
2023-05-22T00:13:45.672Z,17.22
2023-05-22T00:14:15.921Z,17.22
2023-05-22T00:14:47.611Z,17.22
2023-05-22T00:15:18.947Z,17.22
2023-05-22T00:15:49.866Z,17.27
2023-05-22T00:16:19.981Z,17.38
2023-05-22T00:16:51.652Z,17.38
2023-05-22T00:17:23.027Z,17.38
2023-05-22T00:17:53.640Z,17.38
2023-05-22T00:18:23.929Z,17.22
2023-05-22T00:18:56.252Z,17.22
2023-05-22T00:19:25.994Z,17.22
2023-05-22T00:19:57.625Z,17.22
2023-05-22T00:20:42.036Z,17.22
2023-05-22T00:20:59.796Z,17.22
2023-05-22T00:21:30.053Z,17.22
2023-05-22T00:22:01.603Z,17.22
2023-05-22T00:22:33.098Z,17.22
2023-05-22T00:23:04.033Z,17.27
2023-05-22T00:23:34.209Z,17.27
2023-05-22T00:24:05.751Z,17.27
2023-05-22T00:24:35.949Z,17.27
2023-05-22T00:25:09.099Z,17.27
2023-05-22T00:25:37.922Z,17.27
2023-05-22T00:26:09.624Z,17.38
2023-05-22T00:26:40.138Z,17.38
2023-05-22T00:27:11.644Z,17.50
2023-05-22T00:27:42.931Z,17.50
2023-05-22T00:28:13.605Z,17.38
2023-05-22T00:28:43.923Z,17.38
2023-05-22T00:29:15.929Z,17.38
2023-05-22T00:29:45.912Z,17.27
2023-05-22T00:30:19.179Z,17.27
2023-05-22T00:30:48.074Z,17.27
2023-05-22T00:31:19.629Z,17.27
2023-05-22T00:31:49.951Z,17.27
2023-05-22T00:32:21.632Z,17.27
2023-05-22T00:32:53.118Z,17.27
2023-05-22T00:33:24.081Z,17.27
2023-05-22T00:33:54.028Z,17.27
2023-05-22T00:34:25.665Z,17.38
2023-05-22T00:34:56.105Z,17.38
2023-05-22T00:35:28.136Z,17.38
2023-05-22T00:35:58.490Z,17.38
2023-05-22T00:36:29.672Z,17.38
2023-05-22T00:36:59.968Z,17.38
2023-05-22T00:37:31.643Z,17.38
2023-05-22T00:38:10.205Z,17.38
2023-05-22T00:38:34.525Z,17.11
2023-05-22T00:39:03.971Z,17.11
2023-05-22T00:39:35.626Z,17.11
2023-05-22T00:40:06.947Z,17.11
2023-05-22T00:40:41.407Z,17.11
2023-05-22T00:41:07.939Z,17.11
2023-05-22T00:41:39.617Z,17.11
2023-05-22T00:42:09.942Z,17.11
2023-05-22T00:42:42.042Z,17.11
2023-05-22T00:43:12.884Z,17.11
2023-05-22T00:43:43.973Z,17.11
2023-05-22T00:44:13.921Z,17.22
2023-05-22T00:44:45.631Z,17.22
2023-05-22T00:45:17.733Z,17.22
2023-05-22T00:45:47.684Z,17.22
2023-05-22T00:46:18.024Z,17.22
2023-05-22T00:46:49.713Z,17.22
2023-05-22T00:47:20.060Z,17.22
2023-05-22T00:47:51.685Z,17.22
2023-05-22T00:48:22.938Z,17.22
2023-05-22T00:48:53.588Z,17.22
2023-05-22T00:49:24.704Z,17.22
2023-05-22T00:49:55.636Z,17.11
2023-05-22T00:50:26.524Z,17.11
2023-05-22T00:50:57.612Z,17.11
2023-05-22T00:51:27.942Z,17.11
2023-05-22T00:52:00.329Z,17.11
2023-05-22T00:52:29.925Z,17.11
2023-05-22T00:53:01.661Z,17.11
2023-05-22T00:53:33.006Z,17.11
2023-05-22T00:54:04.015Z,17.11
2023-05-22T00:54:34.016Z,17.11
2023-05-22T00:55:06.415Z,17.00
2023-05-22T00:55:36.003Z,17.00
2023-05-22T00:56:07.902Z,17.00
2023-05-22T00:56:37.931Z,17.00
2023-05-22T00:57:10.105Z,17.11
2023-05-22T00:57:39.909Z,17.11
2023-05-22T00:58:11.681Z,17.22
2023-05-22T00:58:43.521Z,17.22
2023-05-22T00:59:12.897Z,17.22
2023-05-22T00:59:44.630Z,17.22
2023-05-22T01:00:17.533Z,17.11
2023-05-22T01:00:55.816Z,17.11
2023-05-22T01:01:16.966Z,17.11
2023-05-22T01:01:48.716Z,17.11
2023-05-22T01:02:18.936Z,17.11
2023-05-22T01:02:51.719Z,17.11
2023-05-22T01:03:21.035Z,17.22
2023-05-22T01:03:53.918Z,17.22
2023-05-22T01:04:23.200Z,17.22
2023-05-22T01:04:54.627Z,17.22
2023-05-22T01:05:25.462Z,17.22
2023-05-22T01:05:56.555Z,17.22
2023-05-22T01:06:26.924Z,17.22
2023-05-22T01:06:58.656Z,17.22
2023-05-22T01:07:28.932Z,17.22
2023-05-22T01:08:00.855Z,17.22
2023-05-22T01:08:30.902Z,17.22
2023-05-22T01:09:09.221Z,17.22
2023-05-22T01:09:34.345Z,17.22
2023-05-22T01:10:04.500Z,17.22
2023-05-22T01:10:35.582Z,17.22
2023-05-22T01:11:05.976Z,17.11
2023-05-22T01:11:37.610Z,17.11
2023-05-22T01:12:07.933Z,17.11
2023-05-22T01:12:39.758Z,17.11
2023-05-22T01:13:09.987Z,17.11
2023-05-22T01:13:41.629Z,17.11
2023-05-22T01:14:12.841Z,17.11
2023-05-22T01:14:43.987Z,17.11
2023-05-22T01:15:15.504Z,17.11
2023-05-22T01:15:45.692Z,17.11
2023-05-22T01:16:16.740Z,17.11
2023-05-22T01:16:47.866Z,17.11
2023-05-22T01:17:17.896Z,17.11
2023-05-22T01:17:49.578Z,17.11
2023-05-22T01:18:19.981Z,17.11
2023-05-22T01:18:52.372Z,17.11
2023-05-22T01:19:22.946Z,17.11
2023-05-22T01:19:53.589Z,17.11
2023-05-22T01:20:24.567Z,17.11
2023-05-22T01:20:55.647Z,17.00
2023-05-22T01:21:25.966Z,17.00
2023-05-22T01:21:57.596Z,17.00
2023-05-22T01:22:27.972Z,17.11
2023-05-22T01:23:00.141Z,17.11
2023-05-22T01:23:29.937Z,17.11
2023-05-22T01:24:01.711Z,17.11
2023-05-22T01:24:33.114Z,17.22
2023-05-22T01:25:04.564Z,17.22
2023-05-22T01:25:33.929Z,17.22
2023-05-22T01:26:05.584Z,17.22
2023-05-22T01:26:35.963Z,17.11
2023-05-22T01:27:07.654Z,17.11
2023-05-22T01:27:38.171Z,17.22
2023-05-22T01:28:09.640Z,17.22
2023-05-22T01:28:39.873Z,17.22
2023-05-22T01:29:11.588Z,17.22
2023-05-22T01:29:43.181Z,17.22
2023-05-22T01:30:14.973Z,17.22
2023-05-22T01:30:44.013Z,17.22
2023-05-22T01:31:15.653Z,17.22
2023-05-22T01:31:45.967Z,17.00
2023-05-22T01:32:17.584Z,17.00
2023-05-22T01:32:48.056Z,17.00
2023-05-22T01:33:19.693Z,17.00
2023-05-22T01:33:50.140Z,17.00
2023-05-22T01:34:21.576Z,17.00
2023-05-22T01:34:52.936Z,16.88
2023-05-22T01:35:24.568Z,16.88
2023-05-22T01:35:53.952Z,16.88
2023-05-22T01:36:26.169Z,16.88
2023-05-22T01:36:55.914Z,16.88
2023-05-22T01:37:27.886Z,16.88
2023-05-22T01:37:57.876Z,16.88
2023-05-22T01:38:29.585Z,16.88
2023-05-22T01:38:59.924Z,16.88
2023-05-22T01:39:31.916Z,16.88
2023-05-22T01:40:10.690Z,16.88
2023-05-22T01:40:42.104Z,16.77
2023-05-22T01:41:04.176Z,16.72
2023-05-22T01:41:35.596Z,16.72
2023-05-22T01:42:05.969Z,16.61
2023-05-22T01:42:37.606Z,16.61
2023-05-22T01:43:08.992Z,16.61
2023-05-22T01:43:39.606Z,16.61
2023-05-22T01:44:09.917Z,16.61
2023-05-22T01:44:41.622Z,16.61
2023-05-22T01:45:14.513Z,16.61
2023-05-22T01:45:44.664Z,16.61
2023-05-22T01:46:14.100Z,16.61
2023-05-22T01:46:45.661Z,16.61
2023-05-22T01:47:16.309Z,16.61
2023-05-22T01:47:47.582Z,16.61
2023-05-22T01:48:17.958Z,16.61
2023-05-22T01:48:49.611Z,16.50
2023-05-22T01:49:19.950Z,16.50
2023-05-22T01:49:52.347Z,16.38
2023-05-22T01:50:23.467Z,16.38
2023-05-22T01:50:53.644Z,16.38
2023-05-22T01:51:23.867Z,16.38
2023-05-22T01:51:55.624Z,16.38
2023-05-22T01:52:25.936Z,16.38
2023-05-22T01:52:57.621Z,16.38
2023-05-22T01:53:27.899Z,16.38
2023-05-22T01:53:59.609Z,16.50
2023-05-22T01:54:29.907Z,16.61
2023-05-22T01:55:02.709Z,16.61
2023-05-22T01:55:33.169Z,16.61
2023-05-22T01:56:04.034Z,16.61
2023-05-22T01:56:34.612Z,16.50
2023-05-22T01:57:05.642Z,16.50
2023-05-22T01:57:35.864Z,16.50
2023-05-22T01:58:07.612Z,16.50
2023-05-22T01:58:37.921Z,16.50
2023-05-22T01:59:09.343Z,16.61
2023-05-22T01:59:40.004Z,16.72
2023-05-22T02:00:13.862Z,16.72
2023-05-22T02:01:05.558Z,16.72
2023-05-22T02:01:16.775Z,16.72
2023-05-22T02:01:44.074Z,16.72
2023-05-22T02:02:15.613Z,16.72
2023-05-22T02:02:46.466Z,16.72
2023-05-22T02:03:18.422Z,16.72
2023-05-22T02:03:48.143Z,16.72
2023-05-22T02:04:19.603Z,16.72
2023-05-22T02:04:49.884Z,16.72
2023-05-22T02:05:22.840Z,16.72
2023-05-22T02:05:53.879Z,16.72
2023-05-22T02:06:24.222Z,16.72
2023-05-22T02:06:53.871Z,16.72
2023-05-22T02:07:25.705Z,16.72
2023-05-22T02:07:55.939Z,16.72
2023-05-22T02:08:27.573Z,16.72
2023-05-22T02:08:57.864Z,16.72
2023-05-22T02:09:29.574Z,16.72
2023-05-22T02:10:02.208Z,16.72
2023-05-22T02:10:31.653Z,16.72
2023-05-22T02:11:09.900Z,16.72
2023-05-22T02:11:33.703Z,16.72
2023-05-22T02:12:03.914Z,16.61
2023-05-22T02:12:37.093Z,16.61
2023-05-22T02:13:05.858Z,16.50
2023-05-22T02:13:37.581Z,16.50
2023-05-22T02:14:08.686Z,16.50
2023-05-22T02:14:39.648Z,16.50
2023-05-22T02:15:11.586Z,16.50
2023-05-22T02:15:41.678Z,16.38
2023-05-22T02:16:12.943Z,16.50
2023-05-22T02:16:44.269Z,16.50
2023-05-22T02:17:13.963Z,16.50
2023-05-22T02:17:45.743Z,16.50
2023-05-22T02:18:15.910Z,16.50
2023-05-22T02:18:47.646Z,16.50
2023-05-22T02:19:17.958Z,16.50
2023-05-22T02:19:49.794Z,16.50
2023-05-22T02:20:20.352Z,16.50
2023-05-22T02:20:51.608Z,16.50
2023-05-22T02:21:22.859Z,16.38
2023-05-22T02:21:53.638Z,16.38
2023-05-22T02:22:23.973Z,16.27
2023-05-22T02:22:55.768Z,16.27
2023-05-22T02:23:26.641Z,16.27
2023-05-22T02:23:57.604Z,16.27
2023-05-22T02:24:27.954Z,16.27
2023-05-22T02:24:59.592Z,16.27
2023-05-22T02:25:30.346Z,16.38
2023-05-22T02:26:01.728Z,16.38
2023-05-22T02:26:32.991Z,16.38
2023-05-22T02:27:04.085Z,16.27
2023-05-22T02:27:34.655Z,16.27
2023-05-22T02:28:05.626Z,16.27
2023-05-22T02:28:35.979Z,16.22
2023-05-22T02:29:07.600Z,16.22
2023-05-22T02:29:37.934Z,16.22
2023-05-22T02:30:11.709Z,16.22
2023-05-22T02:30:40.079Z,16.11
2023-05-22T02:31:11.667Z,16.00
2023-05-22T02:31:43.067Z,16.00
2023-05-22T02:32:13.604Z,15.88
2023-05-22T02:32:43.991Z,15.88
2023-05-22T02:33:15.582Z,15.88
2023-05-22T02:33:46.078Z,15.88
2023-05-22T02:34:17.569Z,15.88
2023-05-22T02:34:47.930Z,15.88
2023-05-22T02:35:20.243Z,15.88
2023-05-22T02:35:49.975Z,15.77
2023-05-22T02:36:21.597Z,15.77
2023-05-22T02:36:53.427Z,15.77
2023-05-22T02:37:23.933Z,15.77
2023-05-22T02:37:53.867Z,15.77
2023-05-22T02:38:25.636Z,15.88
2023-05-22T02:38:55.905Z,15.88
2023-05-22T02:39:27.589Z,15.88
2023-05-22T02:39:58.066Z,16.00
2023-05-22T02:40:43.536Z,16.11
2023-05-22T02:41:00.546Z,16.11
2023-05-22T02:41:31.734Z,16.11
2023-05-22T02:42:10.024Z,16.11
2023-05-22T02:42:33.696Z,16.11
2023-05-22T02:43:03.948Z,16.11
2023-05-22T02:43:36.316Z,16.11
2023-05-22T02:44:05.893Z,16.00
2023-05-22T02:44:37.588Z,16.00
2023-05-22T02:45:09.639Z,15.88
2023-05-22T02:45:39.633Z,15.88
2023-05-22T02:46:10.006Z,15.88
2023-05-22T02:46:41.670Z,15.88
2023-05-22T02:47:13.051Z,15.88
2023-05-22T02:47:43.952Z,15.88
2023-05-22T02:48:13.955Z,15.88
2023-05-22T02:48:45.800Z,15.77
2023-05-22T02:49:15.932Z,15.77
2023-05-22T02:49:47.667Z,15.77
2023-05-22T02:50:19.096Z,15.88
2023-05-22T02:50:49.631Z,15.77
2023-05-22T02:51:19.871Z,15.77
2023-05-22T02:51:51.594Z,15.77
2023-05-22T02:52:22.927Z,15.88
2023-05-22T02:52:53.559Z,15.88
2023-05-22T02:53:23.891Z,15.88
2023-05-22T02:53:55.570Z,15.88
2023-05-22T02:54:26.302Z,15.88
2023-05-22T02:54:57.650Z,15.77
2023-05-22T02:55:28.395Z,15.77
2023-05-22T02:55:59.633Z,15.77
2023-05-22T02:56:29.861Z,15.77
2023-05-22T02:57:02.890Z,15.77
2023-05-22T02:57:33.359Z,15.77
2023-05-22T02:58:04.002Z,15.77
2023-05-22T02:58:33.884Z,15.88
2023-05-22T02:59:04.860Z,15.88
2023-05-22T02:59:35.932Z,15.88
2023-05-22T03:00:08.970Z,15.88
2023-05-22T03:00:50.075Z,15.88
2023-05-22T03:01:10.776Z,15.88
2023-05-22T03:01:39.968Z,15.88
2023-05-22T03:02:11.827Z,15.88
2023-05-22T03:02:43.060Z,15.77
2023-05-22T03:03:13.839Z,15.77
2023-05-22T03:03:44.199Z,15.77
2023-05-22T03:04:15.670Z,15.72
2023-05-22T03:04:46.001Z,15.72
2023-05-22T03:05:18.395Z,15.72
2023-05-22T03:05:48.002Z,15.72
2023-05-22T03:06:19.604Z,15.72
2023-05-22T03:06:50.035Z,15.61
2023-05-22T03:07:21.590Z,15.61
2023-05-22T03:07:52.965Z,15.61
2023-05-22T03:08:24.316Z,15.61
2023-05-22T03:08:54.070Z,15.61
2023-05-22T03:09:26.243Z,15.61
2023-05-22T03:09:56.019Z,15.61
2023-05-22T03:10:28.905Z,15.72
2023-05-22T03:10:58.423Z,15.72
2023-05-22T03:11:29.730Z,15.72
2023-05-22T03:12:00.057Z,15.72
2023-05-22T03:12:31.933Z,15.72
2023-05-22T03:13:10.493Z,15.72
2023-05-22T03:13:33.686Z,15.72
2023-05-22T03:14:03.979Z,15.61
2023-05-22T03:14:36.808Z,15.61
2023-05-22T03:15:07.474Z,15.61
2023-05-22T03:15:37.701Z,15.50
2023-05-22T03:16:08.097Z,15.50
2023-05-22T03:16:39.593Z,15.50
2023-05-22T03:17:10.043Z,15.50
2023-05-22T03:17:41.933Z,15.50
2023-05-22T03:18:13.267Z,15.50
2023-05-22T03:18:44.368Z,15.50
2023-05-22T03:19:14.323Z,15.50
2023-05-22T03:19:46.053Z,15.61
2023-05-22T03:20:16.615Z,15.61
2023-05-22T03:20:51.855Z,15.61
2023-05-22T03:21:18.510Z,15.61
2023-05-22T03:21:49.752Z,15.61
2023-05-22T03:22:20.057Z,15.61
2023-05-22T03:22:51.704Z,15.50
2023-05-22T03:23:23.174Z,15.50
2023-05-22T03:23:54.413Z,15.50
2023-05-22T03:24:24.187Z,15.50
2023-05-22T03:24:55.724Z,15.50
2023-05-22T03:25:26.591Z,15.38
2023-05-22T03:25:57.750Z,15.38
2023-05-22T03:26:28.035Z,15.38
2023-05-22T03:26:59.753Z,15.38
2023-05-22T03:27:30.038Z,15.38
2023-05-22T03:28:01.989Z,15.38
2023-05-22T03:28:33.269Z,15.27
2023-05-22T03:29:04.398Z,15.27
2023-05-22T03:29:34.056Z,15.27
2023-05-22T03:30:07.549Z,15.27
2023-05-22T03:30:37.238Z,15.27
2023-05-22T03:31:07.765Z,15.27
2023-05-22T03:31:38.051Z,15.27
2023-05-22T03:32:09.759Z,15.27
2023-05-22T03:32:40.244Z,15.27
2023-05-22T03:33:11.875Z,15.27
2023-05-22T03:33:43.105Z,15.27
2023-05-22T03:34:13.731Z,15.27
2023-05-22T03:34:44.659Z,15.27
2023-05-22T03:35:16.550Z,15.27
2023-05-22T03:35:46.087Z,15.27
2023-05-22T03:36:17.711Z,15.27
2023-05-22T03:36:48.070Z,15.38
2023-05-22T03:37:20.365Z,15.38
2023-05-22T03:37:50.111Z,15.50
2023-05-22T03:38:21.755Z,15.50
2023-05-22T03:38:53.069Z,15.61
2023-05-22T03:39:24.194Z,15.61
2023-05-22T03:39:54.040Z,15.61
2023-05-22T03:40:26.611Z,15.61
2023-05-22T03:40:56.056Z,15.61
2023-05-22T03:41:27.913Z,15.61
2023-05-22T03:41:58.091Z,15.61
2023-05-22T03:42:29.762Z,15.72
2023-05-22T03:43:00.042Z,15.72
2023-05-22T03:43:31.724Z,15.72
2023-05-22T03:44:10.174Z,15.72
2023-05-22T03:44:33.907Z,15.88
2023-05-22T03:45:05.164Z,15.88
2023-05-22T03:45:36.827Z,15.88
2023-05-22T03:46:06.342Z,15.88
2023-05-22T03:46:39.468Z,15.88
2023-05-22T03:47:08.065Z,15.77
2023-05-22T03:47:39.866Z,15.77
2023-05-22T03:48:10.888Z,15.88
2023-05-22T03:48:41.730Z,15.77
2023-05-22T03:49:13.123Z,15.77
2023-05-22T03:49:44.081Z,15.77
2023-05-22T03:50:14.692Z,15.77
2023-05-22T03:50:46.488Z,15.77
2023-05-22T03:51:47.861Z,15.72
2023-05-22T03:52:18.124Z,15.72
2023-05-22T03:52:49.712Z,15.61
2023-05-22T03:53:20.115Z,15.61
2023-05-22T03:53:51.711Z,15.61
2023-05-22T03:54:23.044Z,15.61
2023-05-22T03:54:53.846Z,15.50
2023-05-22T03:55:24.512Z,15.50
2023-05-22T03:55:55.749Z,15.61
2023-05-22T03:56:26.068Z,15.61
2023-05-22T03:56:57.868Z,15.61
2023-05-22T03:57:28.082Z,15.61
2023-05-22T03:57:59.746Z,15.72
2023-05-22T03:58:30.055Z,15.72
2023-05-22T03:59:01.311Z,15.72
2023-05-22T03:59:33.152Z,15.72
2023-05-22T04:00:06.480Z,15.72
2023-05-22T04:00:34.360Z,15.77
2023-05-22T04:01:06.724Z,15.77
2023-05-22T04:01:36.714Z,15.77
2023-05-22T04:02:07.928Z,15.88
2023-05-22T04:02:38.073Z,15.88
2023-05-22T04:03:09.785Z,15.88
2023-05-22T04:03:40.087Z,15.88
2023-05-22T04:04:12.489Z,15.88
2023-05-22T04:04:43.160Z,15.77
2023-05-22T04:05:14.590Z,15.77
2023-05-22T04:05:44.079Z,15.77
2023-05-22T04:06:15.823Z,15.77
2023-05-22T04:06:45.980Z,15.77
2023-05-22T04:07:17.803Z,15.77
2023-05-22T04:07:48.063Z,15.77
2023-05-22T04:08:20.209Z,15.77
2023-05-22T04:08:50.027Z,15.77
2023-05-22T04:09:21.749Z,15.77
2023-05-22T04:09:53.113Z,15.77
2023-05-22T04:10:25.006Z,15.77
2023-05-22T04:10:54.045Z,15.77
2023-05-22T04:11:25.777Z,15.77
2023-05-22T04:11:56.481Z,15.88
2023-05-22T04:12:28.160Z,15.88
2023-05-22T04:12:58.124Z,15.88
2023-05-22T04:13:29.722Z,16.00
2023-05-22T04:14:00.059Z,16.00
2023-05-22T04:14:31.732Z,16.00
2023-05-22T04:15:11.019Z,16.00
2023-05-22T04:15:34.437Z,16.00
2023-05-22T04:16:04.689Z,16.00
2023-05-22T04:16:36.011Z,16.00
2023-05-22T04:17:06.082Z,16.00
2023-05-22T04:17:39.085Z,16.00
2023-05-22T04:18:08.168Z,16.00
2023-05-22T04:18:39.882Z,16.00
2023-05-22T04:19:10.320Z,16.11
2023-05-22T04:19:42.131Z,16.11
2023-05-22T04:20:14.311Z,16.11
2023-05-22T04:20:44.621Z,16.11
2023-05-22T04:21:14.080Z,16.11
2023-05-22T04:21:46.257Z,16.11
2023-05-22T04:22:16.086Z,16.11
2023-05-22T04:22:47.862Z,16.11
2023-05-22T04:23:18.073Z,16.11
2023-05-22T04:23:49.756Z,16.22
2023-05-22T04:24:20.036Z,16.22
2023-05-22T04:24:51.757Z,16.22
2023-05-22T04:25:23.660Z,16.27
2023-05-22T04:25:53.908Z,16.38
2023-05-22T04:26:24.055Z,16.38
2023-05-22T04:26:55.839Z,16.38
2023-05-22T04:27:26.086Z,16.38
2023-05-22T04:27:58.447Z,16.38
2023-05-22T04:28:28.586Z,16.38
2023-05-22T04:28:59.777Z,16.38
2023-05-22T04:29:30.024Z,16.38
2023-05-22T04:30:02.865Z,16.38
2023-05-22T04:30:33.461Z,16.27
2023-05-22T04:31:05.259Z,16.27
2023-05-22T04:31:34.100Z,16.27
2023-05-22T04:32:05.756Z,16.27
2023-05-22T04:32:36.039Z,16.27
2023-05-22T04:33:07.809Z,16.27
2023-05-22T04:33:37.997Z,16.27
2023-05-22T04:34:10.399Z,16.22
2023-05-22T04:34:40.149Z,16.11
2023-05-22T04:35:12.314Z,16.11
2023-05-22T04:35:43.152Z,16.11
2023-05-22T04:36:13.738Z,16.11
2023-05-22T04:36:44.190Z,16.11
2023-05-22T04:37:15.874Z,16.11
2023-05-22T04:37:46.058Z,16.00
2023-05-22T04:38:18.045Z,16.00
2023-05-22T04:38:48.036Z,16.00
2023-05-22T04:39:19.737Z,16.00
2023-05-22T04:39:50.010Z,16.11
2023-05-22T04:40:22.188Z,16.11
2023-05-22T04:40:53.096Z,16.11
2023-05-22T04:41:24.353Z,16.11
2023-05-22T04:41:54.824Z,16.11
2023-05-22T04:42:25.717Z,16.11
2023-05-22T04:42:56.057Z,16.11
2023-05-22T04:43:27.738Z,15.88
2023-05-22T04:43:58.105Z,15.88
2023-05-22T04:44:30.407Z,15.88
2023-05-22T04:45:00.044Z,15.88
2023-05-22T04:45:32.641Z,15.88
2023-05-22T04:46:10.940Z,15.88
2023-05-22T04:46:34.057Z,15.88
2023-05-22T04:47:06.029Z,15.77
2023-05-22T04:47:36.857Z,15.77
2023-05-22T04:48:06.073Z,15.77
2023-05-22T04:48:37.948Z,15.77
2023-05-22T04:49:08.005Z,15.77
2023-05-22T04:49:44.121Z,15.77
2023-05-22T04:50:10.502Z,15.77
2023-05-22T04:50:41.653Z,15.77
2023-05-22T04:51:14.391Z,15.77
2023-05-22T04:51:43.342Z,15.77
2023-05-22T04:52:14.675Z,15.77
2023-05-22T04:52:45.081Z,15.77
2023-05-22T04:53:16.724Z,15.88
2023-05-22T04:53:47.564Z,16.00
2023-05-22T04:54:18.761Z,16.38
2023-05-22T04:54:49.056Z,16.50
2023-05-22T04:55:21.293Z,16.61
2023-05-22T04:55:51.037Z,16.72
2023-05-22T04:56:35.591Z,16.77
2023-05-22T04:56:53.221Z,16.77
2023-05-22T04:57:24.838Z,16.77
2023-05-22T04:57:55.024Z,16.88
2023-05-22T04:58:26.737Z,16.88
2023-05-22T04:58:57.062Z,17.00
2023-05-22T04:59:28.113Z,17.11
2023-05-22T04:59:59.799Z,17.22
2023-05-22T05:00:32.564Z,17.27
2023-05-22T05:01:03.915Z,17.27
2023-05-22T05:01:34.056Z,17.50
2023-05-22T05:02:04.772Z,17.50
2023-05-22T05:02:34.561Z,17.50
2023-05-22T05:03:05.887Z,17.50
2023-05-22T05:03:36.133Z,17.50
2023-05-22T05:04:07.819Z,17.50
2023-05-22T05:04:38.043Z,17.50
2023-05-22T05:05:10.852Z,17.61
2023-05-22T05:05:40.057Z,17.61
2023-05-22T05:06:11.782Z,17.72
2023-05-22T05:06:43.094Z,17.77
2023-05-22T05:07:13.722Z,17.88
2023-05-22T05:07:44.152Z,17.88
2023-05-22T05:08:15.790Z,18.00
2023-05-22T05:08:46.410Z,18.11
2023-05-22T05:09:18.681Z,18.11
2023-05-22T05:09:47.977Z,18.22
2023-05-22T05:10:20.270Z,18.27
2023-05-22T05:10:50.015Z,18.27
2023-05-22T05:11:22.437Z,18.27
2023-05-22T05:11:53.022Z,18.27
2023-05-22T05:12:24.085Z,18.27
2023-05-22T05:12:54.390Z,18.27
2023-05-22T05:13:26.120Z,18.22
2023-05-22T05:13:56.258Z,18.22
2023-05-22T05:14:27.916Z,18.22
2023-05-22T05:14:58.133Z,18.22
2023-05-22T05:15:31.067Z,18.22
2023-05-22T05:16:00.236Z,18.22
2023-05-22T05:16:32.019Z,18.27
2023-05-22T05:17:10.309Z,18.27
2023-05-22T05:17:34.237Z,18.27
2023-05-22T05:18:04.451Z,18.27
2023-05-22T05:18:36.441Z,18.27
2023-05-22T05:19:06.214Z,18.27
2023-05-22T05:19:37.900Z,18.38
2023-05-22T05:20:08.929Z,18.61
2023-05-22T05:20:44.611Z,18.61
2023-05-22T05:21:10.253Z,18.72
2023-05-22T05:21:41.857Z,18.72
2023-05-22T05:22:13.380Z,18.72
2023-05-22T05:22:44.225Z,18.72
2023-05-22T05:23:14.164Z,18.72
2023-05-22T05:23:45.859Z,18.72
2023-05-22T05:24:16.160Z,18.72
2023-05-22T05:24:48.532Z,18.72
2023-05-22T05:25:18.763Z,18.72
2023-05-22T05:25:50.113Z,18.72
2023-05-22T05:26:20.280Z,18.72
2023-05-22T05:26:51.877Z,18.72
2023-05-22T05:27:23.216Z,18.77
2023-05-22T05:27:53.881Z,18.77
2023-05-22T05:28:24.184Z,18.88
2023-05-22T05:28:57.072Z,18.88
2023-05-22T05:29:26.167Z,19.22
2023-05-22T05:29:58.304Z,19.27
2023-05-22T05:30:29.215Z,19.27
2023-05-22T05:30:59.946Z,19.27
2023-05-22T05:31:30.200Z,19.22
2023-05-22T05:32:01.931Z,19.00
2023-05-22T05:32:33.885Z,18.88
2023-05-22T05:33:04.466Z,18.88
2023-05-22T05:33:34.474Z,18.88
2023-05-22T05:34:05.869Z,19.00
2023-05-22T05:34:36.171Z,19.11
2023-05-22T05:35:08.437Z,19.11
2023-05-22T05:35:41.406Z,19.22
2023-05-22T05:36:10.021Z,19.27
2023-05-22T05:36:40.318Z,19.27
2023-05-22T05:37:11.965Z,19.27
2023-05-22T05:37:43.252Z,19.27
2023-05-22T05:38:14.815Z,19.22
2023-05-22T05:38:44.244Z,19.22
2023-05-22T05:39:15.924Z,19.22
2023-05-22T05:39:46.158Z,18.77
2023-05-22T05:40:18.497Z,18.77
2023-05-22T05:40:51.460Z,18.77
2023-05-22T05:41:19.872Z,18.77
2023-05-22T05:41:50.252Z,18.77
2023-05-22T05:42:22.184Z,18.77
2023-05-22T05:42:53.150Z,18.72
2023-05-22T05:43:24.121Z,18.61
2023-05-22T05:43:54.282Z,18.50
2023-05-22T05:44:26.013Z,18.50
2023-05-22T05:44:56.124Z,18.50
2023-05-22T05:45:28.785Z,18.50
2023-05-22T05:45:58.507Z,18.72
2023-05-22T05:46:30.048Z,18.77
2023-05-22T05:47:00.176Z,18.77
2023-05-22T05:47:31.869Z,18.77
2023-05-22T05:48:10.376Z,18.77
2023-05-22T05:48:33.949Z,18.77
2023-05-22T05:49:05.194Z,18.77
2023-05-22T05:49:36.936Z,18.72
2023-05-22T05:50:07.301Z,18.72
2023-05-22T05:50:38.146Z,18.72
2023-05-22T05:51:08.294Z,18.72
2023-05-22T05:51:40.539Z,18.72
2023-05-22T05:52:10.207Z,18.72
2023-05-22T05:52:41.897Z,18.72
2023-05-22T05:53:13.211Z,18.72
2023-05-22T05:53:44.393Z,18.77
2023-05-22T05:54:14.415Z,18.77
2023-05-22T05:54:45.869Z,18.72
2023-05-22T05:55:16.899Z,18.72
2023-05-22T05:55:48.093Z,18.77
2023-05-22T05:56:18.156Z,18.77
2023-05-22T05:56:49.852Z,18.77
2023-05-22T05:57:20.212Z,19.00
2023-05-22T05:57:51.826Z,19.00
2023-05-22T05:58:23.790Z,19.11
2023-05-22T05:58:53.885Z,19.11
2023-05-22T05:59:24.244Z,19.11
2023-05-22T05:59:55.371Z,19.11
2023-05-22T06:00:28.628Z,19.22
2023-05-22T06:01:02.335Z,19.22
2023-05-22T06:01:28.918Z,19.27
2023-05-22T06:01:59.202Z,19.50
2023-05-22T06:02:31.315Z,19.61
2023-05-22T06:03:01.450Z,19.61
2023-05-22T06:03:34.293Z,19.72
2023-05-22T06:04:03.756Z,19.72
2023-05-22T06:04:36.134Z,19.72
2023-05-22T06:05:07.076Z,19.77
2023-05-22T06:05:36.985Z,19.77
2023-05-22T06:06:07.180Z,19.77
2023-05-22T06:06:40.100Z,19.77
2023-05-22T06:07:09.434Z,19.77
2023-05-22T06:07:40.918Z,19.77
2023-05-22T06:08:11.210Z,19.77
2023-05-22T06:08:44.110Z,19.77
2023-05-22T06:09:13.971Z,19.77
2023-05-22T06:09:45.029Z,19.77
2023-05-22T06:10:15.751Z,19.88
2023-05-22T06:10:46.908Z,19.88
2023-05-22T06:11:17.191Z,19.77
2023-05-22T06:11:49.743Z,19.77
2023-05-22T06:12:19.293Z,19.77
2023-05-22T06:12:50.869Z,19.77
2023-05-22T06:13:21.438Z,19.77
2023-05-22T06:13:53.871Z,19.88
2023-05-22T06:14:23.592Z,20.11
2023-05-22T06:14:55.052Z,20.27
2023-05-22T06:15:26.218Z,20.27
2023-05-22T06:15:59.798Z,20.27
2023-05-22T06:16:27.218Z,20.22
2023-05-22T06:16:58.960Z,20.22
2023-05-22T06:17:29.242Z,20.22
2023-05-22T06:18:01.072Z,20.22
2023-05-22T06:18:32.539Z,20.22
2023-05-22T06:19:10.861Z,20.22
2023-05-22T06:19:34.194Z,20.22
2023-05-22T06:20:05.638Z,20.11
2023-05-22T06:20:45.010Z,20.11
2023-05-22T06:21:06.224Z,20.11
2023-05-22T06:21:37.812Z,19.88
2023-05-22T06:22:08.235Z,19.77
2023-05-22T06:22:40.838Z,19.77
2023-05-22T06:23:10.215Z,19.77
2023-05-22T06:23:41.923Z,19.88
2023-05-22T06:24:13.142Z,19.88
2023-05-22T06:24:44.409Z,20.00
2023-05-22T06:25:15.433Z,20.11
2023-05-22T06:25:45.950Z,20.22
2023-05-22T06:26:16.285Z,20.22
2023-05-22T06:26:47.891Z,20.22
2023-05-22T06:27:18.352Z,20.22
2023-05-22T06:27:49.921Z,20.22
2023-05-22T06:28:20.186Z,20.22
2023-05-22T06:28:51.948Z,20.22
2023-05-22T06:29:23.441Z,20.27
2023-05-22T06:29:54.225Z,20.27
2023-05-22T06:30:39.102Z,20.61
2023-05-22T06:30:55.910Z,20.61
2023-05-22T06:31:26.248Z,20.61
2023-05-22T06:31:58.728Z,20.61
2023-05-22T06:32:28.420Z,20.61
2023-05-22T06:33:00.065Z,20.50
2023-05-22T06:33:30.502Z,20.38
2023-05-22T06:34:02.396Z,20.27
2023-05-22T06:34:34.341Z,20.27
2023-05-22T06:35:05.148Z,20.27
2023-05-22T06:35:34.361Z,20.38
2023-05-22T06:36:06.341Z,20.38
2023-05-22T06:36:36.236Z,20.38
2023-05-22T06:37:07.948Z,20.38
2023-05-22T06:37:38.290Z,20.38
2023-05-22T06:38:09.977Z,20.38
2023-05-22T06:38:40.245Z,20.38
2023-05-22T06:39:12.027Z,20.38
2023-05-22T06:39:43.239Z,20.38